KPSC/PSC METAR and TAF weather

Enter ICAO airport designator
Station Type Date Time Source
KPSC METAR 2019/04/25 07:53 UTC NOAA

KPSC 250753Z AUTO 00000KT 10SM CLR 07/03 A3018 RMK AO2 SLP219 T00670028 402330067


Station Type Date Time Source
KPSC Decoded METAR 2019/04/25 07:53 UTC NOAA

TRI-CITIES AIRPORT, WA, United States (KPSC) 46-16N 119-07W 121M
Apr 25, 2019 - 03:53 AM EDT / 2019.04.25 0753 UTC
Wind: Calm:0
Visibility: 10 mile(s):0
Sky conditions: clear
Temperature: 44.1 F (6.7 C)
Dew Point: 37.0 F (2.8 C)
Relative Humidity: 76%
Pressure (altimeter): 30.18 in. Hg (1022 hPa)
ob: KPSC 250753Z AUTO 00000KT 10SM CLR 07/03 A3018 RMK AO2 SLP219 T00670028 402330067
cycle: 8

Station Type Date Time Source
KPSC TAF 2019/04/25 06:22 UTC NOAA

TAF KPSC 250520Z 2506/2606 15005KT P6SM FEW250
FM251200 34005KT P6SM SCT250
FM252100 02005KT P6SM BKN250

Example: see airport list